Time;durP1;ratioP1;P1;durP2;ratioP2;P2;SDS_P1;SDS_P2;PMS_P1;PMS_P2;Temp;Humidity;BMP_temperature;BMP_pressure;BME280_temperature;BME280_humidity;BME280_pressure;Samples;Min_cycle;Max_cycle;Signal;HPM_P1;HPM_P2
2022/07/12 00:01:18;;;;;;;0.25;0.22;;;25.80;48.70;;;;;;5015295;28;20037;-51
2022/07/12 00:03:44;;;;;;;0.35;0.35;;;25.80;48.70;;;;;;5016435;28;20045;-54
2022/07/12 00:06:10;;;;;;;0.63;0.40;;;25.80;48.70;;;;;;5016367;28;20022;-56
2022/07/12 00:08:37;;;;;;;0.20;0.20;;;25.70;48.70;;;;;;5018397;28;20041;-59
2022/07/12 00:11:04;;;;;;;0.75;0.30;;;25.70;48.60;;;;;;5017621;28;20044;-55
2022/07/12 00:13:30;;;;;;;0.35;0.30;;;25.70;48.70;;;;;;5018263;28;20441;-55
2022/07/12 00:15:57;;;;;;;0.32;0.30;;;25.70;48.70;;;;;;5014716;28;20037;-52
2022/07/12 00:18:23;;;;;;;0.20;0.20;;;25.70;48.70;;;;;;5016622;28;21671;-59
2022/07/12 00:20:49;;;;;;;0.25;0.25;;;25.70;48.70;;;;;;5017687;28;20113;-55
2022/07/12 00:23:16;;;;;;;0.43;0.25;;;25.70;48.70;;;;;;5017677;28;20038;-55
2022/07/12 00:25:42;;;;;;;0.10;0.10;;;25.70;48.70;;;;;;5016110;28;20344;-56
2022/07/12 00:28:08;;;;;;;0.63;0.25;;;25.70;48.70;;;;;;5018830;28;20041;-56
2022/07/12 00:30:34;;;;;;;0.80;0.30;;;25.70;48.70;;;;;;5017574;28;20061;-58
2022/07/12 00:33:00;;;;;;;0.68;0.30;;;25.60;48.60;;;;;;5018567;28;20061;-58
2022/07/12 00:35:26;;;;;;;0.45;0.40;;;25.60;48.60;;;;;;5018824;28;20116;-61
2022/07/12 00:37:52;;;;;;;0.30;0.30;;;25.60;48.60;;;;;;5017934;28;20049;-60
2022/07/12 00:40:18;;;;;;;0.70;0.30;;;25.60;48.70;;;;;;5018033;28;20318;-55
2022/07/12 00:42:45;;;;;;;0.50;0.50;;;25.60;48.70;;;;;;5015583;28;20064;-58
2022/07/12 00:45:11;;;;;;;0.25;0.20;;;25.60;48.70;;;;;;5017674;28;20041;-54
2022/07/12 00:47:45;;;;;;;0.20;0.10;;;25.60;48.70;;;;;;5013432;28;20341;-54
2022/07/12 00:50:15;;;;;;;0.47;0.30;;;25.60;48.70;;;;;;5018242;28;20104;-56
2022/07/12 00:52:43;;;;;;;0.20;0.20;;;25.60;48.80;;;;;;5016555;28;20060;-54
2022/07/12 00:55:10;;;;;;;0.38;0.30;;;25.60;48.80;;;;;;5016725;28;20025;-49
2022/07/12 00:57:36;;;;;;;0.30;0.20;;;25.60;48.80;;;;;;5003230;28;20046;-59
2022/07/12 01:00:06;;;;;;;0.60;0.30;;;25.60;48.80;;;;;;4998940;28;20066;-54
2022/07/12 01:02:33;;;;;;;0.30;0.30;;;25.60;48.80;;;;;;4998129;28;20030;-50
2022/07/12 01:04:59;;;;;;;0.28;0.28;;;25.60;48.80;;;;;;5008138;28;20041;-59
2022/07/12 01:07:26;;;;;;;0.20;0.20;;;25.60;48.80;;;;;;5017253;28;20052;-56
2022/07/12 01:09:53;;;;;;;0.45;0.30;;;25.60;48.80;;;;;;5016157;28;20503;-55
2022/07/12 01:12:21;;;;;;;0.30;0.30;;;25.50;48.70;;;;;;5016950;28;20041;-55
2022/07/12 01:14:49;;;;;;;0.30;0.30;;;25.50;48.70;;;;;;5017435;28;20034;-59
2022/07/12 01:17:16;;;;;;;0.40;0.20;;;25.50;48.70;;;;;;5016264;28;20033;-56
2022/07/12 01:19:42;;;;;;;0.73;0.30;;;25.50;48.70;;;;;;5016967;28;20053;-55
2022/07/12 01:22:10;;;;;;;0.30;0.30;;;25.50;48.70;;;;;;5017593;28;20040;-56
2022/07/12 01:24:37;;;;;;;0.20;0.20;;;25.50;48.70;;;;;;5007661;28;20040;-54
2022/07/12 01:27:06;;;;;;;0.55;0.25;;;25.50;48.70;;;;;;5015290;28;20037;-58
2022/07/12 01:29:32;;;;;;;0.32;0.28;;;25.50;48.70;;;;;;5013447;28;20449;-52
2022/07/12 01:32:38;;;;;;;0.30;0.28;;;25.50;48.70;;;;;;5016445;28;20113;-57
2022/07/12 01:34:58;;;;;;;0.30;0.30;;;25.50;48.70;;;;;;4994592;28;20437;-55
2022/07/12 01:37:27;;;;;;;0.20;0.20;;;25.50;48.70;;;;;;5008961;28;20038;-51
2022/07/12 01:39:55;;;;;;;0.50;0.30;;;25.40;48.70;;;;;;5009904;28;20104;-53
2022/07/12 01:42:23;;;;;;;1.02;0.30;;;25.40;48.60;;;;;;5016499;28;20056;-56
2022/07/12 01:44:50;;;;;;;0.73;0.38;;;25.40;48.70;;;;;;5016693;28;20041;-56
2022/07/12 01:47:17;;;;;;;0.20;0.20;;;25.40;48.70;;;;;;5015264;28;20046;-55
2022/07/12 01:49:43;;;;;;;1.13;0.45;;;25.40;48.70;;;;;;5017436;28;20034;-52
2022/07/12 01:52:09;;;;;;;0.20;0.20;;;25.40;48.80;;;;;;5017524;28;20356;-58
2022/07/12 01:54:35;;;;;;;0.20;0.20;;;25.40;48.80;;;;;;5008656;28;20080;-52
2022/07/12 01:57:03;;;;;;;0.28;0.20;;;25.40;48.90;;;;;;5006574;28;20033;-53
2022/07/12 01:59:29;;;;;;;0.20;0.20;;;25.40;48.90;;;;;;5016845;28;20538;-49
2022/07/12 02:01:56;;;;;;;0.30;0.28;;;25.40;48.90;;;;;;5016398;28;20034;-53
2022/07/12 02:04:21;;;;;;;0.35;0.30;;;25.40;49.00;;;;;;5015870;28;20034;-57
2022/07/12 02:06:48;;;;;;;0.35;0.22;;;25.40;49.00;;;;;;5016458;28;20044;-53
2022/07/12 02:09:15;;;;;;;0.20;0.20;;;25.40;49.00;;;;;;5015075;28;20038;-56
2022/07/12 02:11:43;;;;;;;0.20;0.20;;;25.40;49.00;;;;;;5015642;28;20038;-58
2022/07/12 02:14:12;;;;;;;0.30;0.30;;;25.40;49.00;;;;;;5015252;28;20337;-50
2022/07/12 02:16:38;;;;;;;0.95;0.30;;;25.40;49.10;;;;;;5016393;28;20042;-54
2022/07/12 02:19:05;;;;;;;0.40;0.30;;;25.40;49.10;;;;;;5016951;28;20037;-52
2022/07/12 02:21:30;;;;;;;0.30;0.20;;;25.30;49.00;;;;;;5016031;28;20108;-54
2022/07/12 02:23:56;;;;;;;0.43;0.30;;;25.30;49.00;;;;;;5015613;28;20115;-47
2022/07/12 02:26:22;;;;;;;0.30;0.28;;;25.30;49.00;;;;;;5013111;28;20029;-55
2022/07/12 02:28:49;;;;;;;0.13;0.13;;;25.30;49.00;;;;;;5010064;28;20034;-52
2022/07/12 02:31:15;;;;;;;0.20;0.20;;;25.30;49.00;;;;;;4997422;28;20026;-54
2022/07/12 02:33:41;;;;;;;0.75;0.20;;;25.30;49.00;;;;;;5007551;28;20034;-58
2022/07/12 02:36:07;;;;;;;0.20;0.20;;;25.30;49.00;;;;;;4997871;28;20045;-53
2022/07/12 02:38:33;;;;;;;0.25;0.25;;;25.30;49.00;;;;;;5013125;28;20057;-55
2022/07/12 02:40:59;;;;;;;0.20;0.20;;;25.30;49.00;;;;;;5016217;28;20069;-51
2022/07/12 02:43:26;;;;;;;0.63;0.30;;;25.30;49.10;;;;;;5016289;28;20030;-53
2022/07/12 02:45:53;;;;;;;0.20;0.20;;;25.30;49.10;;;;;;5015717;28;20030;-52
2022/07/12 02:48:19;;;;;;;0.28;0.20;;;25.30;49.00;;;;;;5015033;28;20050;-52
2022/07/12 02:50:46;;;;;;;0.60;0.20;;;25.30;49.00;;;;;;5014642;28;20038;-55
2022/07/12 02:53:12;;;;;;;0.15;0.15;;;25.30;49.00;;;;;;5015422;28;20057;-48
2022/07/12 02:55:38;;;;;;;0.60;0.30;;;25.30;49.10;;;;;;5005061;28;20116;-53
2022/07/12 02:58:07;;;;;;;0.32;0.22;;;25.20;49.00;;;;;;5011028;28;20040;-53
2022/07/12 03:00:34;;;;;;;0.30;0.20;;;25.30;49.70;;;;;;5014951;28;20026;-56
2022/07/12 03:03:01;;;;;;;0.20;0.20;;;25.20;49.00;;;;;;5014014;28;20133;-51
2022/07/12 03:05:26;;;;;;;0.32;0.30;;;25.20;49.00;;;;;;5016042;28;20049;-56
2022/07/12 03:07:52;;;;;;;0.68;0.30;;;25.20;49.00;;;;;;5013913;28;20046;-53
2022/07/12 03:10:18;;;;;;;0.50;0.32;;;25.20;49.10;;;;;;5010204;28;20026;-58
2022/07/12 03:12:44;;;;;;;0.40;0.40;;;25.20;49.10;;;;;;4996443;28;20038;-54
2022/07/12 03:15:10;;;;;;;0.20;0.20;;;25.20;49.10;;;;;;5012626;28;20085;-54
2022/07/12 03:17:36;;;;;;;0.88;0.40;;;25.20;49.10;;;;;;5015211;28;20113;-52
2022/07/12 03:20:05;;;;;;;0.57;0.30;;;25.20;49.10;;;;;;5015544;28;20084;-57
2022/07/12 03:22:31;;;;;;;0.50;0.20;;;25.20;49.10;;;;;;5014778;28;20445;-55
2022/07/12 03:24:57;;;;;;;0.32;0.22;;;25.20;49.10;;;;;;5014622;28;20030;-57
2022/07/12 03:27:22;;;;;;;0.28;0.28;;;25.20;49.10;;;;;;5012291;28;20437;-56
2022/07/12 03:29:48;;;;;;;0.17;0.17;;;25.20;49.10;;;;;;5014856;28;20034;-53
2022/07/12 03:32:14;;;;;;;0.43;0.20;;;25.10;49.00;;;;;;5015536;28;20135;-55
2022/07/12 03:34:40;;;;;;;0.28;0.28;;;25.20;49.10;;;;;;5013811;28;20037;-53
2022/07/12 03:37:05;;;;;;;0.28;0.28;;;25.10;49.10;;;;;;5007483;28;20465;-51
2022/07/12 03:39:31;;;;;;;0.43;0.20;;;25.10;49.00;;;;;;5013724;28;20030;-54
2022/07/12 03:41:57;;;;;;;0.20;0.20;;;25.20;49.10;;;;;;5015222;28;20135;-53
2022/07/12 03:44:23;;;;;;;0.40;0.20;;;25.10;49.10;;;;;;5015045;28;20030;-54
2022/07/12 03:46:49;;;;;;;0.25;0.25;;;25.10;49.10;;;;;;5013344;28;20038;-54
2022/07/12 03:49:14;;;;;;;0.28;0.20;;;25.10;49.20;;;;;;5012463;28;20388;-52
2022/07/12 03:51:40;;;;;;;0.20;0.20;;;25.10;49.20;;;;;;5014014;28;20318;-54
2022/07/12 03:54:09;;;;;;;0.32;0.32;;;25.10;49.20;;;;;;5015172;28;20045;-58
2022/07/12 03:59:20;;;;;;;0.85;0.40;;;25.10;49.20;;;;;;5014651;28;20100;-53
2022/07/12 04:01:46;;;;;;;0.43;0.32;;;25.10;49.20;;;;;;5015103;28;20457;-55
2022/07/12 04:04:12;;;;;;;0.25;0.25;;;25.10;49.20;;;;;;5014921;28;20101;-57
2022/07/12 04:06:41;;;;;;;0.20;0.20;;;25.10;49.20;;;;;;5013242;28;20132;-53
2022/07/12 04:09:07;;;;;;;0.35;0.30;;;25.10;49.20;;;;;;5015252;28;20034;-56
2022/07/12 04:11:33;;;;;;;0.93;0.32;;;25.10;49.20;;;;;;5014031;28;20037;-56
2022/07/12 04:13:59;;;;;;;0.40;0.28;;;25.10;49.20;;;;;;5014341;28;20046;-51
2022/07/12 04:16:26;;;;;;;0.43;0.30;;;25.10;49.20;;;;;;5013190;28;20034;-55
2022/07/12 04:18:53;;;;;;;0.30;0.30;;;25.10;49.20;;;;;;4998983;28;20346;-53
2022/07/12 04:21:19;;;;;;;0.40;0.40;;;25.10;49.20;;;;;;4999365;28;20031;-51
2022/07/12 04:23:45;;;;;;;0.30;0.20;;;25.10;49.10;;;;;;5010259;28;20026;-52
2022/07/12 04:26:11;;;;;;;0.40;0.32;;;25.10;49.10;;;;;;5015284;28;20030;-54
2022/07/12 04:28:37;;;;;;;0.85;0.60;;;25.10;49.20;;;;;;5014532;28;20034;-51
2022/07/12 04:31:03;;;;;;;0.30;0.30;;;25.10;49.20;;;;;;5014913;28;20049;-57
2022/07/12 04:33:29;;;;;;;0.60;0.30;;;25.10;49.20;;;;;;5013731;28;20090;-51
2022/07/12 04:35:55;;;;;;;0.60;0.30;;;25.10;49.20;;;;;;5012095;28;20034;-58
2022/07/12 04:38:20;;;;;;;0.63;0.35;;;25.10;49.20;;;;;;5014087;28;20369;-54
2022/07/12 04:40:46;;;;;;;0.30;0.30;;;25.10;49.20;;;;;;5014873;28;20030;-54
2022/07/12 04:43:12;;;;;;;0.50;0.30;;;25.10;49.20;;;;;;5014692;28;20041;-55
2022/07/12 04:45:38;;;;;;;1.63;0.65;;;25.10;49.20;;;;;;5012887;28;20042;-53
2022/07/12 04:48:04;;;;;;;0.50;0.50;;;25.10;49.30;;;;;;5006968;28;20042;-54
2022/07/12 04:50:29;;;;;;;0.22;0.22;;;25.10;49.30;;;;;;5015192;28;20041;-52
2022/07/12 04:52:55;;;;;;;1.25;0.30;;;25.10;49.30;;;;;;5018431;28;20077;-51
2022/07/12 04:55:21;;;;;;;0.40;0.30;;;25.10;49.30;;;;;;5017519;28;20025;-54
2022/07/12 04:57:47;;;;;;;0.30;0.30;;;25.10;49.30;;;;;;5016306;28;20460;-57
2022/07/12 05:00:13;;;;;;;0.40;0.40;;;25.10;49.40;;;;;;5016291;28;20026;-55
2022/07/12 05:02:39;;;;;;;0.38;0.30;;;25.10;49.40;;;;;;5018320;28;20038;-56
2022/07/12 05:05:05;;;;;;;0.40;0.40;;;25.10;49.50;;;;;;5014979;28;20026;-52
2022/07/12 05:07:31;;;;;;;0.30;0.30;;;25.10;49.60;;;;;;5017365;28;20052;-54
2022/07/12 05:09:57;;;;;;;0.40;0.40;;;25.10;49.60;;;;;;5017967;28;20069;-49
2022/07/12 05:12:23;;;;;;;0.50;0.30;;;25.10;49.60;;;;;;5017551;28;20100;-58
2022/07/12 05:14:48;;;;;;;0.40;0.40;;;25.10;49.60;;;;;;5007099;28;20038;-54
2022/07/12 05:17:14;;;;;;;1.17;0.35;;;25.10;49.70;;;;;;5002766;28;20334;-56
2022/07/12 05:19:40;;;;;;;0.40;0.40;;;25.10;49.70;;;;;;5016574;28;20034;-55
2022/07/12 05:22:06;;;;;;;0.20;0.20;;;25.10;49.70;;;;;;5017181;28;20338;-57
2022/07/12 05:24:32;;;;;;;0.38;0.38;;;25.10;49.70;;;;;;5017324;28;20025;-55
2022/07/12 05:26:58;;;;;;;0.57;0.30;;;25.10;49.70;;;;;;5017169;28;20041;-50
2022/07/12 05:29:23;;;;;;;0.25;0.20;;;25.10;49.80;;;;;;5017902;28;20030;-53
2022/07/12 05:31:49;;;;;;;0.75;0.30;;;25.10;49.90;;;;;;5016350;28;20488;-55
2022/07/12 05:34:15;;;;;;;0.30;0.30;;;25.10;49.90;;;;;;5017651;28;20058;-55
2022/07/12 05:36:40;;;;;;;0.47;0.38;;;25.10;49.90;;;;;;5000955;28;20031;-55
2022/07/12 05:39:06;;;;;;;0.65;0.40;;;25.10;49.90;;;;;;5015551;28;20030;-55
2022/07/12 05:41:32;;;;;;;0.52;0.30;;;25.10;50.00;;;;;;5017594;28;20439;-51
2022/07/12 05:43:58;;;;;;;0.57;0.50;;;25.10;50.00;;;;;;5016916;28;20069;-51
2022/07/12 05:46:24;;;;;;;0.50;0.43;;;25.10;50.10;;;;;;5011545;28;20054;-56
2022/07/12 05:48:50;;;;;;;1.08;0.52;;;25.10;50.00;;;;;;5016786;28;20449;-57
2022/07/12 05:54:00;;;;;;;;;;;25.10;50.20;;;;;;5016660;28;20066;-56
2022/07/12 05:56:26;;;;;;;0.65;0.50;;;25.10;50.10;;;;;;5014185;28;19941;-52
2022/07/12 05:58:52;;;;;;;0.98;0.70;;;25.10;50.20;;;;;;5016104;28;20038;-56
2022/07/12 06:01:18;;;;;;;1.40;0.70;;;25.10;50.20;;;;;;5015873;28;20046;-54
2022/07/12 06:03:44;;;;;;;0.60;0.40;;;25.10;50.20;;;;;;5016768;28;20038;-53
2022/07/12 06:06:09;;;;;;;1.05;0.55;;;25.10;50.30;;;;;;5016899;28;20057;-54
2022/07/12 06:08:35;;;;;;;1.00;0.70;;;25.10;50.30;;;;;;5014215;28;20091;-53
2022/07/12 06:11:01;;;;;;;1.52;0.50;;;25.10;50.30;;;;;;5016720;28;20460;-57
2022/07/12 06:13:28;;;;;;;3.13;0.70;;;25.10;50.30;;;;;;5011052;28;20672;-55
2022/07/12 06:15:55;;;;;;;0.60;0.60;;;25.10;50.30;;;;;;5017101;28;20042;-56
2022/07/12 06:18:21;;;;;;;0.82;0.70;;;25.10;50.40;;;;;;5016018;28;20026;-57
2022/07/12 06:20:47;;;;;;;1.25;0.68;;;25.10;50.40;;;;;;5015408;28;20030;-53
2022/07/12 06:23:13;;;;;;;0.93;0.65;;;25.10;50.40;;;;;;5012307;28;20034;-55
2022/07/12 06:25:40;;;;;;;0.40;0.40;;;25.10;50.40;;;;;;5014109;28;20021;-55
2022/07/12 06:28:06;;;;;;;0.88;0.70;;;25.20;50.60;;;;;;5012416;28;20441;-54
2022/07/12 06:30:31;;;;;;;0.60;0.52;;;25.20;50.60;;;;;;5007141;28;20112;-59
2022/07/12 06:32:57;;;;;;;0.77;0.60;;;25.20;50.60;;;;;;5015333;28;20049;-53
2022/07/12 06:35:23;;;;;;;0.63;0.50;;;25.20;50.60;;;;;;5013472;28;20021;-57
2022/07/12 06:37:49;;;;;;;0.70;0.50;;;25.20;50.60;;;;;;5005691;28;20053;-50
2022/07/12 06:40:16;;;;;;;1.73;0.52;;;25.20;50.70;;;;;;5012531;28;20030;-56
2022/07/12 06:42:43;;;;;;;1.00;0.63;;;25.20;50.70;;;;;;5014792;28;20030;-54
2022/07/12 06:45:10;;;;;;;1.42;0.70;;;25.20;50.80;;;;;;5010827;28;20354;-51
2022/07/12 06:47:36;;;;;;;0.93;0.40;;;25.20;50.90;;;;;;5012611;28;20073;-54
2022/07/12 06:50:05;;;;;;;1.10;0.50;;;25.20;50.90;;;;;;5007202;28;20034;-56
2022/07/12 06:52:31;;;;;;;3.60;0.40;;;25.20;51.00;;;;;;5001430;28;20030;-51
2022/07/12 06:54:58;;;;;;;0.50;0.50;;;25.20;51.00;;;;;;5015989;28;20040;-55
2022/07/12 06:57:29;;;;;;;0.50;0.50;;;25.20;51.10;;;;;;5010753;28;20022;-56
2022/07/12 06:59:56;;;;;;;0.85;0.52;;;25.20;51.10;;;;;;5014856;28;20061;-51
2022/07/12 07:02:22;;;;;;;1.52;0.40;;;25.20;51.10;;;;;;5015125;28;20037;-51
2022/07/12 07:04:48;;;;;;;0.30;0.30;;;25.30;51.20;;;;;;5013014;28;20038;-55
2022/07/12 07:07:14;;;;;;;0.65;0.43;;;25.30;51.20;;;;;;5010197;28;20172;-58
2022/07/12 07:09:41;;;;;;;2.15;0.52;;;25.30;51.20;;;;;;5008416;28;20445;-54
2022/07/12 07:12:07;;;;;;;2.75;0.57;;;25.30;51.30;;;;;;5006259;28;20036;-53
2022/07/12 07:14:33;;;;;;;1.50;0.60;;;25.30;51.30;;;;;;4997661;28;20034;-55
2022/07/12 07:16:59;;;;;;;0.77;0.55;;;25.30;51.30;;;;;;5015680;28;20095;-54
2022/07/12 07:19:26;;;;;;;1.10;0.50;;;25.30;51.30;;;;;;5012093;28;20441;-54
2022/07/12 07:21:54;;;;;;;0.95;0.43;;;25.30;51.30;;;;;;5015274;28;20088;-57
2022/07/12 07:24:20;;;;;;;0.45;0.40;;;25.30;51.30;;;;;;5014655;28;20033;-53
2022/07/12 07:26:46;;;;;;;0.88;0.57;;;25.30;51.40;;;;;;5005081;28;20046;-59
2022/07/12 07:31:56;;;;;;;;;;;25.30;51.40;;;;;;5013569;28;20037;-58
2022/07/12 07:34:23;;;;;;;0.93;0.50;;;25.30;51.30;;;;;;5014823;28;19949;-61
2022/07/12 07:36:50;;;;;;;0.40;0.30;;;25.30;51.30;;;;;;5014217;28;20449;-56
2022/07/12 07:39:16;;;;;;;0.32;0.30;;;25.30;51.30;;;;;;5001812;28;20368;-59
2022/07/12 07:41:42;;;;;;;0.90;0.40;;;25.30;51.40;;;;;;5009800;28;20026;-54
2022/07/12 07:44:08;;;;;;;2.45;0.50;;;25.30;51.40;;;;;;5003786;28;20452;-60
2022/07/12 07:46:34;;;;;;;1.02;0.50;;;25.30;51.50;;;;;;5015310;28;20025;-56
2022/07/12 07:49:00;;;;;;;1.55;0.50;;;25.30;51.50;;;;;;5014466;28;20048;-56
2022/07/12 07:51:26;;;;;;;0.75;0.40;;;25.30;51.50;;;;;;5014203;28;20096;-52
2022/07/12 07:53:52;;;;;;;0.50;0.30;;;25.40;51.60;;;;;;5014707;28;20041;-55
2022/07/12 07:56:18;;;;;;;0.55;0.30;;;25.40;51.60;;;;;;5013574;28;20523;-56
2022/07/12 07:58:44;;;;;;;0.40;0.40;;;25.40;51.60;;;;;;5013570;28;20033;-55
2022/07/12 08:01:09;;;;;;;0.70;0.50;;;25.40;51.60;;;;;;5014615;28;20022;-53
2022/07/12 08:03:35;;;;;;;0.50;0.35;;;25.40;51.60;;;;;;5013381;28;20457;-59
2022/07/12 08:06:01;;;;;;;2.75;0.32;;;25.40;51.60;;;;;;5014361;28;20125;-57
2022/07/12 08:08:28;;;;;;;0.35;0.35;;;25.40;51.50;;;;;;5014821;28;20515;-50
2022/07/12 08:10:54;;;;;;;0.57;0.40;;;25.40;51.50;;;;;;5014882;28;20044;-54
2022/07/12 08:13:20;;;;;;;0.73;0.40;;;25.40;51.50;;;;;;5013213;28;20025;-52
2022/07/12 08:15:46;;;;;;;0.60;0.30;;;25.40;51.40;;;;;;5014364;28;20025;-54
2022/07/12 08:18:12;;;;;;;0.93;0.40;;;25.50;51.40;;;;;;5014228;28;20105;-56
2022/07/12 08:20:38;;;;;;;0.68;0.30;;;25.50;51.40;;;;;;5014644;28;20069;-53
2022/07/12 08:23:04;;;;;;;0.20;0.20;;;25.50;51.30;;;;;;5014258;28;20068;-54
2022/07/12 08:25:30;;;;;;;0.40;0.30;;;25.50;51.30;;;;;;5015801;28;20457;-55
2022/07/12 08:27:56;;;;;;;0.38;0.30;;;25.50;51.20;;;;;;5017681;28;20045;-58
2022/07/12 08:30:23;;;;;;;0.30;0.30;;;25.50;51.20;;;;;;5022846;28;20725;-57
2022/07/12 08:32:49;;;;;;;0.47;0.43;;;25.50;51.10;;;;;;5018567;28;20041;-57
2022/07/12 08:35:15;;;;;;;0.45;0.40;;;25.60;51.10;;;;;;5018840;28;20034;-52
2022/07/12 08:37:42;;;;;;;1.58;0.52;;;25.60;51.10;;;;;;5016763;28;20463;-53
2022/07/12 08:40:08;;;;;;;0.70;0.40;;;25.60;51.00;;;;;;5018592;28;20108;-54
2022/07/12 08:42:35;;;;;;;0.35;0.20;;;25.60;50.90;;;;;;5018000;28;20360;-54
2022/07/12 08:45:02;;;;;;;0.95;0.30;;;25.60;50.90;;;;;;5017340;28;20042;-54
2022/07/12 08:47:28;;;;;;;0.40;0.30;;;25.60;50.80;;;;;;5017885;28;20092;-55
2022/07/12 08:50:17;;;;;;;0.32;0.32;;;25.60;50.80;;;;;;5018432;28;20057;-58
2022/07/12 08:52:48;;;;;;;0.20;0.20;;;25.60;50.80;;;;;;5009712;28;20048;-58
2022/07/12 08:55:20;;;;;;;0.10;0.10;;;25.60;50.70;;;;;;5017728;28;20468;-53
2022/07/12 08:57:46;;;;;;;0.43;0.32;;;25.60;50.70;;;;;;5018416;28;20034;-58
2022/07/12 09:00:13;;;;;;;0.47;0.40;;;25.60;50.60;;;;;;5017323;28;20033;-51
2022/07/12 09:02:56;;;;;;;0.60;0.25;;;25.60;50.60;;;;;;5017213;28;20038;-56
2022/07/12 09:05:24;;;;;;;0.30;0.30;;;25.60;50.60;;;;;;5017920;28;20124;-57
2022/07/12 09:07:50;;;;;;;0.20;0.20;;;25.70;50.60;;;;;;5017934;28;20334;-52
2022/07/12 09:10:17;;;;;;;0.25;0.25;;;25.70;50.60;;;;;;5017708;28;20117;-58
2022/07/12 09:12:44;;;;;;;0.25;0.20;;;25.70;50.50;;;;;;5017984;28;20049;-53
2022/07/12 09:15:13;;;;;;;0.43;0.30;;;25.60;50.40;;;;;;5013862;28;20124;-55
2022/07/12 09:17:46;;;;;;;0.20;0.20;;;25.70;50.40;;;;;;5017786;28;20116;-55
2022/07/12 09:20:13;;;;;;;0.63;0.30;;;25.70;50.40;;;;;;5016065;28;20026;-55
2022/07/12 09:22:52;;;;;;;0.63;0.20;;;25.70;50.30;;;;;;5014242;28;20117;-54
2022/07/12 09:25:19;;;;;;;0.30;0.28;;;25.70;50.30;;;;;;5010812;28;20048;-57
2022/07/12 09:27:59;;;;;;;0.32;0.22;;;25.70;50.30;;;;;;5017556;28;20073;-55
2022/07/12 09:30:28;;;;;;;0.40;0.40;;;25.70;50.40;;;;;;5011075;28;20088;-57
2022/07/12 09:36:09;;;;;;;1.05;0.30;;;25.80;50.50;;;;;;5012860;28;20061;-60
2022/07/12 09:38:44;;;;;;;1.42;0.20;;;25.80;50.50;;;;;;4997934;28;20092;-60
2022/07/12 09:41:17;;;;;;;0.45;0.30;;;25.80;50.60;;;;;;5005713;28;20026;-59
2022/07/12 09:43:44;;;;;;;0.70;0.50;;;25.80;50.50;;;;;;5012886;28;20369;-59
2022/07/12 09:46:10;;;;;;;0.63;0.30;;;25.80;50.50;;;;;;5012474;28;20026;-59
2022/07/12 09:48:37;;;;;;;1.20;0.20;;;25.90;50.60;;;;;;5011809;28;20042;-57
2022/07/12 09:51:04;;;;;;;1.52;0.40;;;25.90;50.60;;;;;;5011619;28;20125;-61
2022/07/12 09:53:33;;;;;;;0.60;0.40;;;25.90;50.60;;;;;;5011059;28;20022;-60
2022/07/12 09:56:07;;;;;;;0.35;0.20;;;25.90;50.50;;;;;;5010914;28;20045;-59
2022/07/12 09:58:40;;;;;;;1.70;0.30;;;25.90;50.40;;;;;;5012676;28;20381;-56
2022/07/12 10:01:07;;;;;;;0.50;0.30;;;26.00;50.40;;;;;;5012179;28;20030;-52
2022/07/12 10:03:36;;;;;;;0.60;0.32;;;26.00;50.40;;;;;;5012348;28;20367;-57
2022/07/12 10:06:03;;;;;;;0.55;0.30;;;26.00;50.40;;;;;;5012338;28;20105;-55
2022/07/12 10:08:30;;;;;;;2.95;0.60;;;26.00;50.40;;;;;;5011747;28;20045;-55
2022/07/12 10:10:57;;;;;;;0.70;0.30;;;26.00;50.40;;;;;;5011464;28;20030;-53
2022/07/12 10:13:23;;;;;;;0.25;0.25;;;26.00;50.40;;;;;;5009912;28;20054;-53
2022/07/12 10:15:50;;;;;;;0.55;0.30;;;26.00;50.30;;;;;;5011453;28;20045;-54
2022/07/12 10:18:18;;;;;;;1.02;0.30;;;26.00;50.30;;;;;;5011694;28;20084;-57
2022/07/12 10:20:48;;;;;;;0.40;0.40;;;26.10;50.30;;;;;;5011930;28;20250;-56
2022/07/12 10:23:20;;;;;;;0.65;0.40;;;26.10;50.20;;;;;;5007474;28;20018;-52
2022/07/12 10:25:49;;;;;;;1.48;0.50;;;26.10;50.30;;;;;;5004540;28;20033;-56
2022/07/12 10:28:15;;;;;;;0.88;0.30;;;26.10;50.30;;;;;;5002498;28;21017;-55
2022/07/12 10:30:45;;;;;;;1.30;0.30;;;26.10;50.40;;;;;;5011820;28;20104;-58
2022/07/12 10:33:19;;;;;;;0.80;0.40;;;26.20;50.50;;;;;;5018437;28;20025;-62
2022/07/12 10:36:06;;;;;;;0.55;0.30;;;26.20;50.40;;;;;;5011084;28;20030;-55
2022/07/12 10:38:34;;;;;;;1.48;0.40;;;26.20;50.30;;;;;;5010758;28;20349;-59
2022/07/12 10:41:19;;;;;;;1.48;0.25;;;26.20;50.40;;;;;;5008185;28;20018;-56
2022/07/12 10:44:04;;;;;;;1.25;0.40;;;26.20;50.30;;;;;;5011222;28;20036;-58
2022/07/12 10:46:31;;;;;;;2.17;0.50;;;26.30;50.40;;;;;;5009077;28;20029;-56
2022/07/12 10:49:25;;;;;;;0.40;0.30;;;26.30;50.40;;;;;;5008340;28;20105;-52
2022/07/12 10:52:09;;;;;;;0.85;0.38;;;26.30;50.40;;;;;;5008750;28;20038;-51
2022/07/12 10:54:36;;;;;;;1.20;0.50;;;26.40;50.30;;;;;;5005274;28;20446;-52
2022/07/12 10:57:02;;;;;;;1.40;0.45;;;26.40;50.30;;;;;;5005702;28;20033;-58
2022/07/12 10:59:30;;;;;;;0.55;0.32;;;26.40;50.30;;;;;;5009726;28;20138;-60
2022/07/12 11:01:56;;;;;;;0.25;0.20;;;26.50;50.30;;;;;;5008892;28;20404;-55
2022/07/12 11:04:22;;;;;;;0.30;0.30;;;26.50;50.30;;;;;;5007879;28;20030;-53
2022/07/12 11:06:49;;;;;;;0.30;0.30;;;26.50;50.30;;;;;;5007793;28;20091;-54
2022/07/12 11:09:17;;;;;;;0.47;0.38;;;26.60;50.30;;;;;;5007284;28;20080;-56
2022/07/12 11:11:48;;;;;;;1.25;0.25;;;26.60;50.30;;;;;;5008582;28;20088;-55
2022/07/12 11:14:26;;;;;;;1.95;0.30;;;26.60;50.20;;;;;;5008893;28;20026;-57
2022/07/12 11:16:55;;;;;;;0.57;0.30;;;26.60;50.20;;;;;;5010030;28;20034;-56
2022/07/12 11:19:25;;;;;;;0.73;0.25;;;26.60;50.10;;;;;;5007901;28;20021;-50
2022/07/12 11:21:58;;;;;;;0.50;0.30;;;26.70;50.00;;;;;;5010162;28;20037;-56
2022/07/12 11:24:29;;;;;;;0.73;0.60;;;26.70;50.00;;;;;;5005781;28;20392;-54
2022/07/12 11:26:57;;;;;;;1.85;0.30;;;26.70;49.80;;;;;;5009139;28;20053;-53
2022/07/12 11:29:25;;;;;;;0.32;0.30;;;26.80;49.80;;;;;;5009247;28;20036;-52
2022/07/12 11:32:00;;;;;;;0.63;0.52;;;26.80;49.60;;;;;;5007641;28;20101;-57
2022/07/12 11:34:26;;;;;;;0.52;0.30;;;26.80;49.60;;;;;;5005563;28;20088;-52
2022/07/12 11:37:03;;;;;;;2.92;0.30;;;26.80;49.60;;;;;;5009818;28;20030;-54
2022/07/12 11:39:34;;;;;;;0.40;0.35;;;26.80;49.60;;;;;;5006905;28;20034;-58
2022/07/12 11:42:00;;;;;;;0.68;0.45;;;26.80;49.60;;;;;;5007326;28;20040;-55
2022/07/12 11:44:45;;;;;;;1.05;0.50;;;26.80;49.40;;;;;;5009385;28;20021;-53
2022/07/12 11:47:12;;;;;;;0.52;0.43;;;26.90;49.30;;;;;;5005322;28;20045;-57
2022/07/12 11:49:46;;;;;;;0.40;0.40;;;26.90;49.30;;;;;;5008769;28;20484;-55
2022/07/12 11:52:16;;;;;;;0.82;0.60;;;26.90;49.20;;;;;;5008513;28;20440;-58
2022/07/12 11:54:44;;;;;;;0.60;0.50;;;26.90;49.20;;;;;;5006997;28;20030;-58
2022/07/12 11:57:12;;;;;;;1.42;0.57;;;27.00;49.20;;;;;;5010032;28;20025;-51
2022/07/12 11:59:38;;;;;;;0.68;0.60;;;27.00;49.10;;;;;;5012350;28;20041;-59
2022/07/12 12:02:07;;;;;;;0.70;0.50;;;27.00;49.00;;;;;;5012647;28;20037;-50
2022/07/12 12:04:57;;;;;;;3.63;0.55;;;27.00;48.90;;;;;;5011881;28;20107;-57
2022/07/12 12:07:28;;;;;;;2.08;0.65;;;27.10;48.90;;;;;;5013444;28;20488;-58
2022/07/12 12:10:17;;;;;;;1.13;0.60;;;27.00;48.80;;;;;;5012574;28;20035;-54
2022/07/12 12:12:54;;;;;;;1.17;0.55;;;27.10;48.70;;;;;;5008647;28;20022;-55
2022/07/12 12:15:27;;;;;;;2.90;0.65;;;27.10;48.70;;;;;;5010311;28;20033;-55
2022/07/12 12:17:58;;;;;;;1.10;0.50;;;27.10;48.60;;;;;;5011576;28;20121;-56
2022/07/12 12:20:35;;;;;;;0.60;0.50;;;27.10;48.60;;;;;;5015219;28;20083;-58
2022/07/12 12:23:03;;;;;;;0.57;0.40;;;27.10;48.40;;;;;;5014448;28;20030;-57
2022/07/12 12:25:30;;;;;;;0.55;0.50;;;27.10;48.50;;;;;;5014951;28;20056;-52
2022/07/12 12:28:04;;;;;;;0.50;0.50;;;27.10;48.40;;;;;;5006781;28;20045;-57
2022/07/12 12:30:33;;;;;;;0.57;0.50;;;27.10;48.40;;;;;;5016171;28;20037;-60
2022/07/12 12:33:06;;;;;;;2.05;0.50;;;27.20;48.50;;;;;;5013621;28;20104;-55
2022/07/12 12:35:37;;;;;;;0.77;0.52;;;27.20;48.50;;;;;;5015434;28;21544;-56
2022/07/12 12:38:15;;;;;;;0.50;0.50;;;27.20;48.40;;;;;;5013184;28;20030;-60
2022/07/12 12:40:51;;;;;;;0.60;0.60;;;27.20;48.40;;;;;;5009937;28;20464;-59
2022/07/12 12:43:20;;;;;;;0.30;0.30;;;27.20;48.30;;;;;;5014076;28;20038;-62
2022/07/12 12:45:53;;;;;;;0.52;0.52;;;27.20;48.30;;;;;;5014623;28;20033;-58
2022/07/12 12:48:30;;;;;;;0.45;0.45;;;27.20;48.30;;;;;;5010501;28;20681;-54
2022/07/12 12:51:10;;;;;;;0.70;0.60;;;27.30;48.30;;;;;;5016241;28;20368;-59
2022/07/12 12:53:39;;;;;;;0.60;0.60;;;27.30;48.30;;;;;;5013027;28;20032;-57
2022/07/12 12:56:16;;;;;;;0.50;0.50;;;27.40;48.30;;;;;;5012742;28;20134;-58
2022/07/12 12:58:42;;;;;;;1.58;0.50;;;27.40;48.20;;;;;;5007432;28;20030;-53
2022/07/12 13:01:09;;;;;;;0.55;0.55;;;27.40;48.20;;;;;;5014379;28;20034;-59
2022/07/12 13:03:35;;;;;;;1.60;0.75;;;27.40;48.20;;;;;;5012842;28;20341;-61